sensor_id;sensor_type;location;lat;lon;timestamp;pressure;altitude;pressure_sealevel;temperature;humidity
10064;BME280;5071;52.360;13.134;2022-08-07T00:01:00;102186.41;;;11.63;69.01
10064;BME280;5071;52.360;13.134;2022-08-07T00:06:24;102184.63;;;11.56;69.57
10064;BME280;5071;52.360;13.134;2022-08-07T00:11:34;102185.53;;;11.58;68.99
10064;BME280;5071;52.360;13.134;2022-08-07T00:16:49;102187.22;;;11.47;69.40
10064;BME280;5071;52.360;13.134;2022-08-07T00:21:52;102183.59;;;11.36;70.33
10064;BME280;5071;52.360;13.134;2022-08-07T00:27:03;102185.28;;;11.24;70.08
10064;BME280;5071;52.360;13.134;2022-08-07T00:32:09;102184.38;;;11.25;71.04
10064;BME280;5071;52.360;13.134;2022-08-07T00:37:15;102182.63;;;11.24;70.58
10064;BME280;5071;52.360;13.134;2022-08-07T00:42:17;102175.44;;;11.16;70.83
10064;BME280;5071;52.360;13.134;2022-08-07T00:47:30;102174.56;;;11.18;70.56
10064;BME280;5071;52.360;13.134;2022-08-07T00:52:54;102177.06;;;10.97;71.48
10064;BME280;5071;52.360;13.134;2022-08-07T00:57:56;102175.16;;;10.86;71.86
10064;BME280;5071;52.360;13.134;2022-08-07T01:02:58;102176.91;;;10.80;71.54
10064;BME280;5071;52.360;13.134;2022-08-07T01:08:03;102174.19;;;10.77;71.82
10064;BME280;5071;52.360;13.134;2022-08-07T01:13:09;102173.16;;;10.59;72.42
10064;BME280;5071;52.360;13.134;2022-08-07T01:18:17;102179.41;;;10.64;72.71
10064;BME280;5071;52.360;13.134;2022-08-07T01:23:21;102182.91;;;10.63;72.78
10064;BME280;5071;52.360;13.134;2022-08-07T01:28:37;102175.56;;;10.36;72.85
10064;BME280;5071;52.360;13.134;2022-08-07T01:33:40;102184.00;;;10.07;72.79
10064;BME280;5071;52.360;13.134;2022-08-07T01:39:00;102180.44;;;10.05;74.19
10064;BME280;5071;52.360;13.134;2022-08-07T01:44:11;102179.50;;;10.02;74.48
10064;BME280;5071;52.360;13.134;2022-08-07T01:49:13;102183.97;;;10.04;74.38
10064;BME280;5071;52.360;13.134;2022-08-07T01:54:18;102189.19;;;9.98;74.84
10064;BME280;5071;52.360;13.134;2022-08-07T01:59:41;102174.25;;;10.05;74.31
10064;BME280;5071;52.360;13.134;2022-08-07T02:04:48;102184.78;;;9.99;74.95
10064;BME280;5071;52.360;13.134;2022-08-07T02:09:59;102183.00;;;9.99;75.20
10064;BME280;5071;52.360;13.134;2022-08-07T02:15:04;102181.25;;;10.00;75.18
10064;BME280;5071;52.360;13.134;2022-08-07T02:20:09;102173.13;;;9.89;75.35
10064;BME280;5071;52.360;13.134;2022-08-07T02:25:19;102164.19;;;9.81;75.76
10064;BME280;5071;52.360;13.134;2022-08-07T02:30:43;102176.47;;;9.72;75.92
10064;BME280;5071;52.360;13.134;2022-08-07T02:35:48;102176.47;;;9.72;75.83
10064;BME280;5071;52.360;13.134;2022-08-07T02:41:13;102171.88;;;9.62;75.19
10064;BME280;5071;52.360;13.134;2022-08-07T02:46:24;102174.25;;;9.44;75.97
10064;BME280;5071;52.360;13.134;2022-08-07T02:51:31;102165.31;;;9.36;76.20
10064;BME280;5071;52.360;13.134;2022-08-07T02:56:55;102172.44;;;9.40;76.22
10064;BME280;5071;52.360;13.134;2022-08-07T03:02:01;102173.22;;;9.34;76.28
10064;BME280;5071;52.360;13.134;2022-08-07T03:07:04;102169.75;;;9.37;75.83
10064;BME280;5071;52.360;13.134;2022-08-07T03:12:13;102181.22;;;9.36;76.10
10064;BME280;5071;52.360;13.134;2022-08-07T03:17:32;102181.97;;;9.28;75.97
10064;BME280;5071;52.360;13.134;2022-08-07T03:22:54;102168.69;;;9.27;76.39
10064;BME280;5071;52.360;13.134;2022-08-07T03:28:01;102173.94;;;9.22;77.01
10064;BME280;5071;52.360;13.134;2022-08-07T03:33:25;102172.03;;;9.15;77.20
10064;BME280;5071;52.360;13.134;2022-08-07T03:38:41;102178.19;;;9.12;77.11
10064;BME280;5071;52.360;13.134;2022-08-07T03:43:48;102175.59;;;9.17;76.69
10064;BME280;5071;52.360;13.134;2022-08-07T03:48:58;102186.09;;;9.11;76.87
10064;BME280;5071;52.360;13.134;2022-08-07T03:54:04;102181.69;;;9.11;76.78
10064;BME280;5071;52.360;13.134;2022-08-07T03:59:28;102185.19;;;9.09;76.71
10064;BME280;5071;52.360;13.134;2022-08-07T04:04:30;102188.66;;;9.05;76.82
10064;BME280;5071;52.360;13.134;2022-08-07T04:09:34;102181.63;;;9.08;76.65
10064;BME280;5071;52.360;13.134;2022-08-07T04:14:53;102189.78;;;9.21;76.84
10064;BME280;5071;52.360;13.134;2022-08-07T04:19:56;102192.56;;;9.28;76.23
10064;BME280;5071;52.360;13.134;2022-08-07T04:24:59;102198.75;;;9.27;76.12
10064;BME280;5071;52.360;13.134;2022-08-07T04:30:05;102199.75;;;9.36;75.99
10064;BME280;5071;52.360;13.134;2022-08-07T04:35:14;102194.72;;;9.52;75.91
10064;BME280;5071;52.360;13.134;2022-08-07T04:40:16;102205.53;;;9.66;75.60
10064;BME280;5071;52.360;13.134;2022-08-07T04:45:24;102195.25;;;9.88;75.32
10064;BME280;5071;52.360;13.134;2022-08-07T04:50:57;102207.41;;;10.39;74.76
10064;BME280;5071;52.360;13.134;2022-08-07T04:56:13;102207.56;;;11.43;73.91
10064;BME280;5071;52.360;13.134;2022-08-07T05:01:39;102199.41;;;13.18;69.44
10064;BME280;5071;52.360;13.134;2022-08-07T05:06:50;102206.44;;;15.52;61.28
10064;BME280;5071;52.360;13.134;2022-08-07T05:11:54;102203.06;;;17.93;53.30
10064;BME280;5071;52.360;13.134;2022-08-07T05:17:02;102202.69;;;19.64;48.57
10064;BME280;5071;52.360;13.134;2022-08-07T05:22:13;102201.59;;;21.22;45.29
10064;BME280;5071;52.360;13.134;2022-08-07T05:27:29;102208.16;;;22.42;41.76
10064;BME280;5071;52.360;13.134;2022-08-07T05:32:54;102208.38;;;23.05;41.99
10064;BME280;5071;52.360;13.134;2022-08-07T05:37:59;102209.53;;;23.42;40.63
10064;BME280;5071;52.360;13.134;2022-08-07T05:43:10;102217.78;;;24.21;40.26
10064;BME280;5071;52.360;13.134;2022-08-07T05:48:15;102213.97;;;24.83;38.69
10064;BME280;5071;52.360;13.134;2022-08-07T05:53:27;102217.47;;;25.58;36.51
10064;BME280;5071;52.360;13.134;2022-08-07T05:58:49;102226.72;;;25.54;37.05
10064;BME280;5071;52.360;13.134;2022-08-07T06:03:56;102223.47;;;24.35;37.63
10064;BME280;5071;52.360;13.134;2022-08-07T06:09:02;102221.75;;;24.72;36.73
10064;BME280;5071;52.360;13.134;2022-08-07T06:14:06;102232.34;;;24.39;37.45
10064;BME280;5071;52.360;13.134;2022-08-07T06:19:23;102236.03;;;24.57;39.15
10064;BME280;5071;52.360;13.134;2022-08-07T06:24:45;102225.66;;;26.43;33.58
10064;BME280;5071;52.360;13.134;2022-08-07T06:29:59;102216.41;;;27.10;34.50
10064;BME280;5071;52.360;13.134;2022-08-07T06:35:03;102226.81;;;24.80;35.56
10064;BME280;5071;52.360;13.134;2022-08-07T06:40:19;102229.06;;;25.62;33.22
10064;BME280;5071;52.360;13.134;2022-08-07T06:45:22;102225.56;;;26.11;35.31
10064;BME280;5071;52.360;13.134;2022-08-07T06:50:28;102236.31;;;26.14;33.24
10064;BME280;5071;52.360;13.134;2022-08-07T06:55:32;102231.84;;;25.43;35.35
10064;BME280;5071;52.360;13.134;2022-08-07T07:00:56;102230.03;;;24.11;36.61
10064;BME280;5071;52.360;13.134;2022-08-07T07:06:00;102222.03;;;25.75;33.17
10064;BME280;5071;52.360;13.134;2022-08-07T07:11:11;102226.06;;;24.95;33.67
10064;BME280;5071;52.360;13.134;2022-08-07T07:16:37;102224.66;;;24.09;35.33
10064;BME280;5071;52.360;13.134;2022-08-07T07:21:53;102232.00;;;23.86;35.02
10064;BME280;5071;52.360;13.134;2022-08-07T07:27:16;102227.44;;;23.02;37.28
10064;BME280;5071;52.360;13.134;2022-08-07T07:32:22;102210.09;;;21.64;39.76
10064;BME280;5071;52.360;13.134;2022-08-07T07:37:28;102222.56;;;22.42;38.09
10064;BME280;5071;52.360;13.134;2022-08-07T07:42:53;102214.16;;;22.50;37.85
10064;BME280;5071;52.360;13.134;2022-08-07T07:47:58;102208.22;;;22.64;38.25
10064;BME280;5071;52.360;13.134;2022-08-07T07:53:02;102202.50;;;21.99;39.46
10064;BME280;5071;52.360;13.134;2022-08-07T07:58:05;102199.44;;;21.60;40.23
10064;BME280;5071;52.360;13.134;2022-08-07T08:03:09;102193.97;;;21.34;39.58
10064;BME280;5071;52.360;13.134;2022-08-07T08:08:19;102195.03;;;21.57;39.36
10064;BME280;5071;52.360;13.134;2022-08-07T08:13:42;102185.81;;;21.88;38.75
10064;BME280;5071;52.360;13.134;2022-08-07T08:18:58;102173.38;;;22.55;38.62
10064;BME280;5071;52.360;13.134;2022-08-07T08:24:12;102175.34;;;23.17;37.18
10064;BME280;5071;52.360;13.134;2022-08-07T08:29:41;102176.69;;;22.85;36.57
10064;BME280;5071;52.360;13.134;2022-08-07T08:34:56;102180.44;;;23.03;37.34
10064;BME280;5071;52.360;13.134;2022-08-07T08:40:00;102172.50;;;22.98;36.08
10064;BME280;5071;52.360;13.134;2022-08-07T08:45:09;102169.03;;;23.39;36.51
10064;BME280;5071;52.360;13.134;2022-08-07T08:50:20;102172.13;;;23.29;37.50
10064;BME280;5071;52.360;13.134;2022-08-07T08:55:50;102166.63;;;23.93;35.14
10064;BME280;5071;52.360;13.134;2022-08-07T09:01:04;102167.31;;;26.15;30.86
10064;BME280;5071;52.360;13.134;2022-08-07T09:06:28;102167.22;;;28.59;28.29
10064;BME280;5071;52.360;13.134;2022-08-07T09:11:39;102168.06;;;32.66;23.34
10064;BME280;5071;52.360;13.134;2022-08-07T09:17:02;102165.38;;;31.51;23.80
10064;BME280;5071;52.360;13.134;2022-08-07T09:22:17;102161.91;;;30.53;24.36
10064;BME280;5071;52.360;13.134;2022-08-07T09:27:51;102158.63;;;32.02;22.66
10064;BME280;5071;52.360;13.134;2022-08-07T09:33:11;102145.06;;;34.04;20.47
10064;BME280;5071;52.360;13.134;2022-08-07T09:38:44;102142.38;;;33.20;22.34
10064;BME280;5071;52.360;13.134;2022-08-07T09:44:02;102145.78;;;32.14;21.98
10064;BME280;5071;52.360;13.134;2022-08-07T09:49:33;102126.94;;;29.42;26.18
10064;BME280;5071;52.360;13.134;2022-08-07T09:55:03;102120.13;;;28.26;25.46
10064;BME280;5071;52.360;13.134;2022-08-07T10:00:20;102114.50;;;32.92;20.14
10064;BME280;5071;52.360;13.134;2022-08-07T10:05:54;102109.31;;;33.83;19.54
10064;BME280;5071;52.360;13.134;2022-08-07T10:11:21;102114.41;;;33.15;21.02
10064;BME280;5071;52.360;13.134;2022-08-07T10:17:22;102094.56;;;30.37;23.82
10064;BME280;5071;52.360;13.134;2022-08-07T10:23:05;102073.22;;;29.01;25.46
10064;BME280;5071;52.360;13.134;2022-08-07T10:28:42;102071.22;;;30.32;25.18
10064;BME280;5071;52.360;13.134;2022-08-07T10:34:06;102070.53;;;26.25;30.11
10064;BME280;5071;52.360;13.134;2022-08-07T10:39:28;102060.91;;;25.02;32.81
10064;BME280;5071;52.360;13.134;2022-08-07T10:45:00;102063.34;;;24.72;32.00
10064;BME280;5071;52.360;13.134;2022-08-07T10:50:11;102050.13;;;24.47;32.18
10064;BME280;5071;52.360;13.134;2022-08-07T10:55:19;102043.22;;;24.39;32.50
10064;BME280;5071;52.360;13.134;2022-08-07T11:00:45;102037.44;;;24.28;31.00
10064;BME280;5071;52.360;13.134;2022-08-07T11:06:03;102035.00;;;25.12;32.48
10064;BME280;5071;52.360;13.134;2022-08-07T11:11:11;102027.75;;;24.95;32.42
10064;BME280;5071;52.360;13.134;2022-08-07T11:16:19;102024.72;;;25.52;32.36
10064;BME280;5071;52.360;13.134;2022-08-07T11:21:38;102033.75;;;27.25;27.88
10064;BME280;5071;52.360;13.134;2022-08-07T11:26:47;102016.41;;;29.32;26.95
10064;BME280;5071;52.360;13.134;2022-08-07T11:31:55;102011.75;;;28.81;26.01
10064;BME280;5071;52.360;13.134;2022-08-07T11:37:10;102018.81;;;27.46;27.06
10064;BME280;5071;52.360;13.134;2022-08-07T11:42:18;102005.38;;;28.55;25.92
10064;BME280;5071;52.360;13.134;2022-08-07T11:47:44;101999.75;;;27.02;28.25
10064;BME280;5071;52.360;13.134;2022-08-07T11:53:17;101996.78;;;27.78;27.55
10064;BME280;5071;52.360;13.134;2022-08-07T11:58:31;101990.44;;;28.99;26.64
10064;BME280;5071;52.360;13.134;2022-08-07T12:04:00;101979.31;;;28.22;26.37
10064;BME280;5071;52.360;13.134;2022-08-07T12:09:16;101968.84;;;28.56;26.84
10064;BME280;5071;52.360;13.134;2022-08-07T12:14:26;101968.78;;;28.30;27.74
10064;BME280;5071;52.360;13.134;2022-08-07T12:19:36;101961.75;;;27.43;28.30
10064;BME280;5071;52.360;13.134;2022-08-07T12:25:10;101961.25;;;28.47;26.84
10064;BME280;5071;52.360;13.134;2022-08-07T12:30:38;101963.84;;;28.88;26.28
10064;BME280;5071;52.360;13.134;2022-08-07T12:35:49;101960.59;;;29.09;25.02
10064;BME280;5071;52.360;13.134;2022-08-07T12:41:01;101949.47;;;29.25;25.19
10064;BME280;5071;52.360;13.134;2022-08-07T12:46:21;101936.09;;;29.20;24.56
10064;BME280;5071;52.360;13.134;2022-08-07T12:51:38;101933.59;;;28.39;25.32
10064;BME280;5071;52.360;13.134;2022-08-07T12:57:03;101937.63;;;28.06;26.44
10064;BME280;5071;52.360;13.134;2022-08-07T13:02:30;101928.03;;;27.15;27.41
10064;BME280;5071;52.360;13.134;2022-08-07T13:18:53;101919.41;;;25.22;30.41
10064;BME280;5071;52.360;13.134;2022-08-07T13:24:03;101907.28;;;24.96;30.07
10064;BME280;5071;52.360;13.134;2022-08-07T13:29:18;101908.16;;;24.79;30.00
10064;BME280;5071;52.360;13.134;2022-08-07T13:34:30;101905.00;;;25.86;29.16
10064;BME280;5071;52.360;13.134;2022-08-07T13:39:44;101907.78;;;25.03;29.72
10064;BME280;5071;52.360;13.134;2022-08-07T13:45:10;101905.66;;;24.59;30.32
10064;BME280;5071;52.360;13.134;2022-08-07T13:50:35;101898.31;;;24.61;30.74
10064;BME280;5071;52.360;13.134;2022-08-07T13:55:59;101891.72;;;24.48;30.09
10064;BME280;5071;52.360;13.134;2022-08-07T14:01:11;101885.66;;;24.60;30.43
10064;BME280;5071;52.360;13.134;2022-08-07T14:06:14;101882.13;;;26.20;28.93
10064;BME280;5071;52.360;13.134;2022-08-07T14:11:20;101867.44;;;27.25;28.32
10064;BME280;5071;52.360;13.134;2022-08-07T14:16:30;101873.31;;;27.04;26.54
10064;BME280;5071;52.360;13.134;2022-08-07T14:21:41;101860.53;;;27.89;26.39
10064;BME280;5071;52.360;13.134;2022-08-07T14:27:07;101852.28;;;28.17;25.70
10064;BME280;5071;52.360;13.134;2022-08-07T14:32:39;101856.91;;;28.29;25.73
10064;BME280;5071;52.360;13.134;2022-08-07T14:37:44;101845.72;;;28.19;27.41
10064;BME280;5071;52.360;13.134;2022-08-07T14:43:08;101844.97;;;28.17;26.90
10064;BME280;5071;52.360;13.134;2022-08-07T14:48:33;101842.91;;;28.34;26.38
10064;BME280;5071;52.360;13.134;2022-08-07T14:53:39;101831.63;;;27.85;25.80
10064;BME280;5071;52.360;13.134;2022-08-07T14:59:03;101838.63;;;28.17;26.49
10064;BME280;5071;52.360;13.134;2022-08-07T15:04:31;101831.97;;;28.21;25.67
10064;BME280;5071;52.360;13.134;2022-08-07T15:09:38;101828.94;;;28.25;25.77
10064;BME280;5071;52.360;13.134;2022-08-07T15:15:04;101827.28;;;28.10;26.67
10064;BME280;5071;52.360;13.134;2022-08-07T15:20:31;101824.94;;;28.04;25.91
10064;BME280;5071;52.360;13.134;2022-08-07T15:25:55;101815.91;;;27.07;26.70
10064;BME280;5071;52.360;13.134;2022-08-07T15:31:01;101804.94;;;27.36;26.46
10064;BME280;5071;52.360;13.134;2022-08-07T15:36:08;101798.13;;;28.10;26.86
10064;BME280;5071;52.360;13.134;2022-08-07T15:41:11;101805.88;;;27.49;25.68
10064;BME280;5071;52.360;13.134;2022-08-07T15:46:36;101806.53;;;27.80;25.54
10064;BME280;5071;52.360;13.134;2022-08-07T15:51:54;101811.56;;;26.31;26.99
10064;BME280;5071;52.360;13.134;2022-08-07T15:56:58;101795.00;;;26.50;27.24
10064;BME280;5071;52.360;13.134;2022-08-07T16:02:02;101796.81;;;27.07;27.41
10064;BME280;5071;52.360;13.134;2022-08-07T16:07:10;101790.09;;;27.27;27.22
10064;BME280;5071;52.360;13.134;2022-08-07T16:12:41;101792.22;;;27.22;26.84
10064;BME280;5071;52.360;13.134;2022-08-07T16:18:12;101796.50;;;27.53;26.77
10064;BME280;5071;52.360;13.134;2022-08-07T16:23:53;101789.75;;;26.90;27.20
10064;BME280;5071;52.360;13.134;2022-08-07T16:29:08;101789.22;;;27.12;27.59
10064;BME280;5071;52.360;13.134;2022-08-07T16:34:40;101778.75;;;26.92;26.40
10064;BME280;5071;52.360;13.134;2022-08-07T16:40:12;101776.22;;;26.74;27.46
10064;BME280;5071;52.360;13.134;2022-08-07T16:45:47;101774.97;;;26.66;28.37
10064;BME280;5071;52.360;13.134;2022-08-07T16:51:18;101790.41;;;26.51;28.19
10064;BME280;5071;52.360;13.134;2022-08-07T16:57:01;101785.56;;;26.56;28.98
10064;BME280;5071;52.360;13.134;2022-08-07T17:02:38;101782.84;;;26.56;27.71
10064;BME280;5071;52.360;13.134;2022-08-07T17:07:56;101785.44;;;26.57;27.85
10064;BME280;5071;52.360;13.134;2022-08-07T17:13:30;101788.84;;;26.32;29.06
10064;BME280;5071;52.360;13.134;2022-08-07T17:19:02;101782.72;;;25.68;28.76
10064;BME280;5071;52.360;13.134;2022-08-07T17:24:31;101781.50;;;25.58;29.37
10064;BME280;5071;52.360;13.134;2022-08-07T17:30:03;101782.84;;;25.19;29.36
10064;BME280;5071;52.360;13.134;2022-08-07T17:35:24;101789.25;;;25.02;29.72
10064;BME280;5071;52.360;13.134;2022-08-07T17:41:00;101777.47;;;24.86;29.61
10064;BME280;5071;52.360;13.134;2022-08-07T17:46:30;101784.38;;;24.75;30.72
10064;BME280;5071;52.360;13.134;2022-08-07T17:51:42;101783.16;;;24.48;30.54
10064;BME280;5071;52.360;13.134;2022-08-07T17:57:05;101793.63;;;24.38;30.61
10064;BME280;5071;52.360;13.134;2022-08-07T18:02:28;101785.16;;;24.26;31.34
10064;BME280;5071;52.360;13.134;2022-08-07T18:07:39;101784.47;;;24.05;31.67
10064;BME280;5071;52.360;13.134;2022-08-07T18:13:23;101783.03;;;23.81;31.78
10064;BME280;5071;52.360;13.134;2022-08-07T18:18:47;101776.16;;;23.74;31.70
10064;BME280;5071;52.360;13.134;2022-08-07T18:24:15;101787.13;;;23.53;33.85
10064;BME280;5071;52.360;13.134;2022-08-07T18:29:37;101780.50;;;22.84;34.64
10064;BME280;5071;52.360;13.134;2022-08-07T18:35:20;101784.72;;;22.71;35.06
10064;BME280;5071;52.360;13.134;2022-08-07T18:40:28;101799.91;;;22.36;36.68
10064;BME280;5071;52.360;13.134;2022-08-07T18:45:57;101806.78;;;21.80;38.01
10064;BME280;5071;52.360;13.134;2022-08-07T18:51:28;101799.94;;;21.49;38.60
10064;BME280;5071;52.360;13.134;2022-08-07T18:56:57;101802.34;;;21.11;39.95
10064;BME280;5071;52.360;13.134;2022-08-07T19:02:31;101819.31;;;20.67;41.14
10064;BME280;5071;52.360;13.134;2022-08-07T19:07:50;101819.09;;;20.48;42.66
10064;BME280;5071;52.360;13.134;2022-08-07T19:13:03;101811.50;;;20.59;42.20
10064;BME280;5071;52.360;13.134;2022-08-07T19:18:19;101822.19;;;20.12;42.54
10064;BME280;5071;52.360;13.134;2022-08-07T19:23:45;101829.50;;;19.82;44.18
10064;BME280;5071;52.360;13.134;2022-08-07T19:29:04;101826.69;;;19.57;44.91
10064;BME280;5071;52.360;13.134;2022-08-07T19:34:28;101826.47;;;19.36;44.93
10064;BME280;5071;52.360;13.134;2022-08-07T19:39:37;101827.94;;;19.18;46.18
10064;BME280;5071;52.360;13.134;2022-08-07T19:45:02;101833.16;;;18.93;47.79
10064;BME280;5071;52.360;13.134;2022-08-07T19:50:10;101842.94;;;18.64;47.78
10064;BME280;5071;52.360;13.134;2022-08-07T19:55:34;101854.50;;;18.35;49.11
10064;BME280;5071;52.360;13.134;2022-08-07T20:00:56;101842.56;;;18.11;49.12
10064;BME280;5071;52.360;13.134;2022-08-07T20:06:00;101847.50;;;17.94;49.98
10064;BME280;5071;52.360;13.134;2022-08-07T20:11:08;101850.56;;;17.78;50.66
10064;BME280;5071;52.360;13.134;2022-08-07T20:16:18;101845.47;;;17.66;51.16
10064;BME280;5071;52.360;13.134;2022-08-07T20:21:37;101854.97;;;17.43;51.71
10064;BME280;5071;52.360;13.134;2022-08-07T20:26:52;101857.97;;;17.29;52.57
10064;BME280;5071;52.360;13.134;2022-08-07T20:31:58;101860.03;;;17.17;53.29
10064;BME280;5071;52.360;13.134;2022-08-07T20:37:03;101854.34;;;16.90;54.08
10064;BME280;5071;52.360;13.134;2022-08-07T20:42:10;101859.31;;;16.63;54.28
10064;BME280;5071;52.360;13.134;2022-08-07T20:47:17;101863.06;;;16.55;54.63
10064;BME280;5071;52.360;13.134;2022-08-07T20:52:26;101860.41;;;16.53;54.72
10064;BME280;5071;52.360;13.134;2022-08-07T20:57:54;101874.13;;;16.36;55.26
10064;BME280;5071;52.360;13.134;2022-08-07T21:03:05;101871.03;;;16.09;55.61
10064;BME280;5071;52.360;13.134;2022-08-07T21:08:12;101866.69;;;16.01;56.99
10064;BME280;5071;52.360;13.134;2022-08-07T21:13:18;101868.63;;;15.92;57.19
10064;BME280;5071;52.360;13.134;2022-08-07T21:18:42;101874.97;;;15.88;56.85
10064;BME280;5071;52.360;13.134;2022-08-07T21:23:55;101867.94;;;15.80;57.71
10064;BME280;5071;52.360;13.134;2022-08-07T21:29:07;101870.72;;;15.72;57.60
10064;BME280;5071;52.360;13.134;2022-08-07T21:34:23;101874.38;;;15.65;57.42
10064;BME280;5071;52.360;13.134;2022-08-07T21:39:32;101878.16;;;15.51;58.23
10064;BME280;5071;52.360;13.134;2022-08-07T21:44:55;101872.91;;;15.45;58.39
10064;BME280;5071;52.360;13.134;2022-08-07T21:50:04;101873.03;;;15.36;58.97
10064;BME280;5071;52.360;13.134;2022-08-07T21:55:19;101875.75;;;15.31;58.48
10064;BME280;5071;52.360;13.134;2022-08-07T22:00:34;101880.59;;;15.03;58.88
10064;BME280;5071;52.360;13.134;2022-08-07T22:05:46;101877.25;;;14.86;59.68
10064;BME280;5071;52.360;13.134;2022-08-07T22:10:53;101877.47;;;14.66;60.15
10064;BME280;5071;52.360;13.134;2022-08-07T22:16:02;101884.66;;;14.56;61.78
10064;BME280;5071;52.360;13.134;2022-08-07T22:21:34;101881.94;;;14.65;60.73
10064;BME280;5071;52.360;13.134;2022-08-07T22:27:03;101883.03;;;14.43;62.00
10064;BME280;5071;52.360;13.134;2022-08-07T22:32:14;101881.38;;;14.32;62.08
10064;BME280;5071;52.360;13.134;2022-08-07T22:37:28;101879.59;;;14.28;61.57
10064;BME280;5071;52.360;13.134;2022-08-07T22:42:56;101882.41;;;14.16;61.64
10064;BME280;5071;52.360;13.134;2022-08-07T22:48:08;101880.75;;;14.01;62.47
10064;BME280;5071;52.360;13.134;2022-08-07T22:53:46;101878.06;;;13.99;62.82
10064;BME280;5071;52.360;13.134;2022-08-07T22:59:29;101881.69;;;13.92;62.85
10064;BME280;5071;52.360;13.134;2022-08-07T23:04:49;101885.34;;;13.85;63.41
10064;BME280;5071;52.360;13.134;2022-08-07T23:10:23;101882.75;;;13.68;63.11
10064;BME280;5071;52.360;13.134;2022-08-07T23:15:48;101894.44;;;13.52;63.86
10064;BME280;5071;52.360;13.134;2022-08-07T23:21:22;101894.50;;;13.44;63.82
10064;BME280;5071;52.360;13.134;2022-08-07T23:26:47;101883.00;;;13.31;64.20
10064;BME280;5071;52.360;13.134;2022-08-07T23:32:05;101887.47;;;13.15;64.89
10064;BME280;5071;52.360;13.134;2022-08-07T23:37:44;101889.31;;;13.10;65.33
10064;BME280;5071;52.360;13.134;2022-08-07T23:43:16;101890.19;;;13.08;64.78
10064;BME280;5071;52.360;13.134;2022-08-07T23:48:44;101892.91;;;12.91;66.17
10064;BME280;5071;52.360;13.134;2022-08-07T23:53:58;101883.13;;;12.93;66.17
10064;BME280;5071;52.360;13.134;2022-08-07T23:59:10;101885.78;;;12.96;65.96
